Time;durP1;ratioP1;P1;durP2;ratioP2;P2;SDS_P1;SDS_P2;PMS_P1;PMS_P2;Temp;Humidity;BMP_temperature;BMP_pressure;BME280_temperature;BME280_humidity;BME280_pressure;Samples;Min_cycle;Max_cycle;Signal;HPM_P1;HPM_P2
2022/01/15 00:01:13;;;;;;;33.37;19.77;;;1.00;93.30;;;;;;5039024;28;21065;-49
2022/01/15 00:03:40;;;;;;;29.43;18.70;;;1.00;93.60;;;;;;5042091;28;20475;-49
2022/01/15 00:06:07;;;;;;;36.10;21.63;;;1.00;93.60;;;;;;5034868;28;20490;-49
2022/01/15 00:08:34;;;;;;;53.83;31.37;;;1.00;93.20;;;;;;5036989;28;20485;-49
2022/01/15 00:11:00;;;;;;;40.43;23.00;;;1.00;93.30;;;;;;5042176;28;20474;-49
2022/01/15 00:13:28;;;;;;;33.00;20.07;;;1.10;93.70;;;;;;5046174;28;20483;-48
2022/01/15 00:16:05;;;;;;;32.07;20.10;;;1.10;93.10;;;;;;5025181;28;20479;-48
2022/01/15 00:18:42;;;;;;;30.60;18.90;;;1.10;93.40;;;;;;5043062;28;21082;-49
2022/01/15 00:21:09;;;;;;;35.70;19.80;;;1.10;92.90;;;;;;5049893;28;20475;-49
2022/01/15 00:23:36;;;;;;;37.67;20.20;;;1.10;93.20;;;;;;5051224;28;20485;-49
2022/01/15 00:26:02;;;;;;;34.40;20.13;;;1.10;93.40;;;;;;5045015;28;20755;-48
2022/01/15 00:28:29;;;;;;;35.20;24.30;;;1.10;93.20;;;;;;5045103;28;20486;-49
2022/01/15 00:30:57;;;;;;;36.47;22.00;;;1.10;93.40;;;;;;5041455;28;20490;-49
2022/01/15 00:33:25;;;;;;;38.07;19.77;;;1.10;93.50;;;;;;5042734;28;20493;-49
2022/01/15 00:35:52;;;;;;;33.60;19.70;;;1.10;93.00;;;;;;5042088;28;20551;-49
2022/01/15 00:38:19;;;;;;;29.80;19.80;;;1.20;93.30;;;;;;5040062;28;20498;-49
2022/01/15 00:40:46;;;;;;;35.00;18.30;;;1.10;93.10;;;;;;5042000;28;20560;-49
2022/01/15 00:43:19;;;;;;;39.47;22.17;;;1.10;92.80;;;;;;5044177;28;20479;-49
2022/01/15 00:45:45;;;;;;;29.47;19.43;;;1.10;93.00;;;;;;5043874;28;20845;-49
2022/01/15 00:48:13;;;;;;;32.97;19.60;;;1.00;93.10;;;;;;5049374;28;20478;-49
2022/01/15 00:50:41;;;;;;;28.93;18.23;;;1.00;93.10;;;;;;5031676;28;20479;-49
2022/01/15 00:53:07;;;;;;;26.17;18.03;;;1.00;93.30;;;;;;5064827;28;20485;-49
2022/01/15 00:55:34;;;;;;;36.43;22.97;;;1.00;93.40;;;;;;5052065;28;20534;-49
2022/01/15 00:58:01;;;;;;;38.93;22.43;;;1.00;93.00;;;;;;5053261;28;20493;-49
2022/01/15 01:00:28;;;;;;;33.03;20.40;;;1.00;93.30;;;;;;5017693;28;20477;-49
2022/01/15 01:02:55;;;;;;;36.23;22.73;;;1.00;93.20;;;;;;5049088;28;20498;-49
2022/01/15 01:05:23;;;;;;;43.33;21.50;;;1.00;92.90;;;;;;5050085;28;20474;-50
2022/01/15 01:07:51;;;;;;;44.40;21.93;;;1.00;93.10;;;;;;5052830;28;20511;-49
2022/01/15 01:13:27;;;;;;;48.47;26.53;;;1.00;93.40;;;;;;5050742;28;20528;-48
2022/01/15 01:22:12;;;;;;;44.90;22.53;;;1.00;93.30;;;;;;5049080;28;20515;-49
2022/01/15 01:24:28;;;;;;;32.27;21.57;;;0.90;93.20;;;;;;5044802;28;21092;-49
2022/01/15 01:26:58;;;;;;;33.67;22.43;;;0.90;93.20;;;;;;5049363;28;20962;-49
2022/01/15 01:29:34;;;;;;;42.23;23.47;;;0.90;93.10;;;;;;5044224;28;20559;-49
2022/01/15 01:32:06;;;;;;;36.10;21.93;;;0.90;93.40;;;;;;5057896;28;20869;-48
2022/01/15 01:34:36;;;;;;;37.47;23.17;;;0.80;93.40;;;;;;5055518;28;20482;-49
2022/01/15 01:37:11;;;;;;;36.67;21.87;;;0.90;93.30;;;;;;5036456;28;20550;-49
2022/01/15 01:39:44;;;;;;;32.13;21.60;;;0.90;93.60;;;;;;5065928;28;20981;-49
2022/01/15 01:42:30;;;;;;;30.00;20.30;;;0.90;93.50;;;;;;5074824;28;20908;-49
2022/01/15 01:45:08;;;;;;;36.57;19.90;;;0.90;93.80;;;;;;5061621;27;20814;-48
2022/01/15 01:47:41;;;;;;;33.23;20.43;;;0.80;93.80;;;;;;5086793;27;20481;-49
2022/01/15 01:50:12;;;;;;;32.33;19.77;;;0.80;93.90;;;;;;5067695;28;20486;-48
2022/01/15 01:52:41;;;;;;;39.23;21.33;;;0.80;93.80;;;;;;5069631;28;20483;-49
2022/01/15 01:55:09;;;;;;;37.00;20.70;;;0.80;94.00;;;;;;5066296;28;20489;-49
2022/01/15 01:57:36;;;;;;;33.63;21.03;;;0.80;94.00;;;;;;5080531;27;21060;-49
2022/01/15 02:00:06;;;;;;;37.70;19.93;;;0.80;93.80;;;;;;5072384;27;21055;-49
2022/01/15 02:02:32;;;;;;;44.87;21.37;;;0.80;94.00;;;;;;5075872;27;20495;-49
2022/01/15 02:04:59;;;;;;;27.73;18.90;;;0.80;94.00;;;;;;5074534;27;20492;-49
2022/01/15 02:07:27;;;;;;;33.47;17.87;;;0.90;94.30;;;;;;5067533;28;20485;-49
2022/01/15 02:09:57;;;;;;;29.37;18.73;;;0.80;94.40;;;;;;5069316;28;20493;-49
2022/01/15 02:12:24;;;;;;;32.30;18.47;;;0.80;94.80;;;;;;5069811;28;20477;-48
2022/01/15 02:14:51;;;;;;;29.73;19.53;;;0.80;94.60;;;;;;5073625;27;20492;-49
2022/01/15 02:17:19;;;;;;;39.70;20.83;;;0.80;94.80;;;;;;5085613;27;20563;-49
2022/01/15 02:20:09;;;;;;;31.17;19.47;;;0.80;94.70;;;;;;5065237;28;20561;-48
2022/01/15 02:25:20;;;;;;;33.40;18.00;;;0.70;94.30;;;;;;5067538;28;21047;-48
2022/01/15 02:27:47;;;;;;;33.40;19.33;;;0.60;94.50;;;;;;5065014;28;21274;-48
2022/01/15 02:30:14;;;;;;;32.33;18.77;;;0.60;94.60;;;;;;5083855;27;20503;-49
2022/01/15 02:32:41;;;;;;;27.93;17.40;;;0.60;94.20;;;;;;5068648;27;21222;-48
2022/01/15 02:35:13;;;;;;;35.17;19.27;;;0.60;94.50;;;;;;5087469;27;20485;-49
2022/01/15 02:37:40;;;;;;;34.83;18.70;;;0.50;94.40;;;;;;5079031;27;20904;-49
2022/01/15 02:40:10;;;;;;;33.70;17.63;;;0.50;94.60;;;;;;5076324;27;20480;-48
2022/01/15 02:42:37;;;;;;;36.43;20.00;;;0.50;94.80;;;;;;5090182;27;20482;-48
2022/01/15 02:45:06;;;;;;;32.33;17.37;;;0.40;94.70;;;;;;5071326;28;20532;-45
2022/01/15 02:50:21;;;;;;;42.43;19.63;;;0.40;94.80;;;;;;5068292;28;21248;-45
2022/01/15 02:52:47;;;;;;;39.23;20.20;;;0.40;95.10;;;;;;5069820;28;20493;-45
2022/01/15 02:55:14;;;;;;;33.40;18.77;;;0.40;95.10;;;;;;5077213;28;20489;-46
2022/01/15 02:57:41;;;;;;;35.27;20.57;;;0.40;94.40;;;;;;5077279;28;20495;-44
2022/01/15 03:00:09;;;;;;;30.30;18.03;;;0.40;94.70;;;;;;5073068;28;20955;-45
2022/01/15 03:02:36;;;;;;;31.33;18.30;;;0.40;94.90;;;;;;5070208;28;20493;-45
2022/01/15 03:05:03;;;;;;;27.47;18.20;;;0.50;94.60;;;;;;5101772;27;20724;-45
2022/01/15 03:07:31;;;;;;;35.10;17.40;;;0.50;94.80;;;;;;5075553;27;20524;-44
2022/01/15 03:09:58;;;;;;;36.07;18.00;;;0.50;94.60;;;;;;5070910;28;20477;-45
2022/01/15 03:12:25;;;;;;;33.63;18.50;;;0.60;94.30;;;;;;5079804;28;20508;-45
2022/01/15 03:14:55;;;;;;;29.47;15.60;;;0.60;94.50;;;;;;5075507;28;20517;-45
2022/01/15 03:17:22;;;;;;;36.20;16.77;;;0.60;94.40;;;;;;5075747;28;21023;-45
2022/01/15 03:19:48;;;;;;;30.27;15.73;;;0.60;94.20;;;;;;5066535;28;20555;-45
2022/01/15 03:22:15;;;;;;;25.00;14.17;;;0.60;94.40;;;;;;5074161;28;20492;-45
2022/01/15 03:24:43;;;;;;;23.13;15.23;;;0.50;94.60;;;;;;5081865;28;20858;-45
2022/01/15 03:27:10;;;;;;;27.17;15.73;;;0.50;94.80;;;;;;5074788;28;20479;-45
2022/01/15 03:29:37;;;;;;;28.93;16.83;;;0.50;95.00;;;;;;5076995;28;20485;-45
2022/01/15 03:32:05;;;;;;;21.50;13.47;;;0.50;95.10;;;;;;5073121;27;20810;-45
2022/01/15 03:34:32;;;;;;;35.63;16.13;;;0.50;95.00;;;;;;5101216;27;20473;-45
2022/01/15 03:36:59;;;;;;;24.23;14.37;;;0.50;95.30;;;;;;5075938;28;20476;-45
2022/01/15 03:39:26;;;;;;;21.70;13.37;;;0.50;95.30;;;;;;5076888;28;20487;-46
2022/01/15 03:41:54;;;;;;;23.53;13.20;;;0.50;95.30;;;;;;5074142;28;20480;-45
2022/01/15 03:44:21;;;;;;;24.17;12.00;;;0.40;95.60;;;;;;5079096;28;20523;-45
2022/01/15 03:46:47;;;;;;;23.63;14.20;;;0.40;95.70;;;;;;5074001;28;20510;-45
2022/01/15 03:49:14;;;;;;;20.30;13.13;;;0.40;95.50;;;;;;5077035;28;21180;-45
2022/01/15 03:51:41;;;;;;;27.90;14.23;;;0.40;95.70;;;;;;5076818;28;20504;-45
2022/01/15 03:54:07;;;;;;;21.23;13.17;;;0.40;95.80;;;;;;5076663;28;20532;-46
2022/01/15 03:56:34;;;;;;;26.20;14.77;;;0.50;95.40;;;;;;5078058;28;21063;-45
2022/01/15 03:59:02;;;;;;;22.00;13.27;;;0.50;95.70;;;;;;5077777;28;20491;-45
2022/01/15 04:01:29;;;;;;;19.13;13.00;;;0.40;95.60;;;;;;5080882;28;20505;-45
2022/01/15 04:03:56;;;;;;;21.57;13.20;;;0.50;95.30;;;;;;5086538;28;20479;-45
2022/01/15 04:06:22;;;;;;;26.00;13.83;;;0.40;95.50;;;;;;5079725;28;20488;-44
2022/01/15 04:08:49;;;;;;;24.77;13.67;;;0.40;95.50;;;;;;5074547;28;20467;-45
2022/01/15 04:11:16;;;;;;;31.13;13.43;;;0.50;95.20;;;;;;5089006;28;20479;-45
2022/01/15 04:13:42;;;;;;;20.63;12.93;;;0.40;95.40;;;;;;5069866;28;20475;-45
2022/01/15 04:16:11;;;;;;;16.00;11.80;;;0.40;95.30;;;;;;5082055;28;20473;-45
2022/01/15 04:18:40;;;;;;;27.87;13.10;;;0.40;95.10;;;;;;5081762;28;20483;-45
2022/01/15 04:21:09;;;;;;;18.50;12.03;;;0.40;95.30;;;;;;5082231;28;20506;-45
2022/01/15 04:23:36;;;;;;;26.00;13.57;;;0.40;95.40;;;;;;5077583;28;20574;-45
2022/01/15 04:26:04;;;;;;;26.27;14.37;;;0.40;95.20;;;;;;5070749;28;20466;-45
2022/01/15 04:28:33;;;;;;;26.20;14.90;;;0.40;95.50;;;;;;5093233;28;20492;-45
2022/01/15 04:31:04;;;;;;;23.23;12.73;;;0.40;95.30;;;;;;5079837;28;20472;-45
2022/01/15 04:33:34;;;;;;;23.07;13.73;;;0.40;95.30;;;;;;5086465;28;20505;-45
2022/01/15 04:36:01;;;;;;;15.30;12.47;;;0.40;95.30;;;;;;5063869;28;20998;-45
2022/01/15 04:38:29;;;;;;;19.33;13.33;;;0.40;95.10;;;;;;5104786;27;20555;-45
2022/01/15 04:40:56;;;;;;;25.77;13.77;;;0.40;95.10;;;;;;5060650;28;20514;-45
2022/01/15 04:43:22;;;;;;;24.33;13.10;;;0.40;95.20;;;;;;5092022;28;20901;-46
2022/01/15 04:45:49;;;;;;;19.00;12.80;;;0.40;95.00;;;;;;5079353;28;20484;-45
2022/01/15 04:48:16;;;;;;;30.03;13.17;;;0.40;95.20;;;;;;5071630;28;20526;-45
2022/01/15 04:50:44;;;;;;;19.30;12.77;;;0.30;95.10;;;;;;5075431;28;20488;-45
2022/01/15 04:53:11;;;;;;;24.47;12.93;;;0.30;95.20;;;;;;5073590;28;20535;-45
2022/01/15 04:55:38;;;;;;;23.20;11.23;;;0.30;95.30;;;;;;5081553;28;20488;-45
2022/01/15 04:58:06;;;;;;;17.80;12.37;;;0.30;95.40;;;;;;5081114;28;20489;-45
2022/01/15 05:00:34;;;;;;;20.20;11.60;;;0.30;95.40;;;;;;5068467;28;20478;-45
2022/01/15 05:03:01;;;;;;;21.40;12.40;;;0.20;95.40;;;;;;5068345;28;20871;-44
2022/01/15 05:05:29;;;;;;;27.67;13.00;;;0.30;95.40;;;;;;5077070;28;20493;-45
2022/01/15 05:07:57;;;;;;;23.63;11.57;;;0.30;95.40;;;;;;5077033;28;20515;-45
2022/01/15 05:10:27;;;;;;;23.07;12.83;;;0.30;95.40;;;;;;5083902;27;21402;-46
2022/01/15 05:12:56;;;;;;;21.93;11.50;;;0.30;95.40;;;;;;5081375;28;20519;-45
2022/01/15 05:15:23;;;;;;;25.80;12.20;;;0.30;95.20;;;;;;5067831;28;20490;-45
2022/01/15 05:17:51;;;;;;;19.43;12.07;;;0.20;95.20;;;;;;5090404;28;20476;-45
2022/01/15 05:20:20;;;;;;;21.73;12.10;;;0.30;95.20;;;;;;5075839;28;20559;-44
2022/01/15 05:22:49;;;;;;;27.87;13.60;;;0.30;95.30;;;;;;5078894;28;20487;-45
2022/01/15 05:25:18;;;;;;;26.90;13.00;;;0.30;95.40;;;;;;5079196;28;20507;-44
2022/01/15 05:27:46;;;;;;;20.73;12.90;;;0.30;95.50;;;;;;5080718;28;20520;-44
2022/01/15 05:30:14;;;;;;;17.23;11.00;;;0.30;95.60;;;;;;5076233;28;20477;-45
2022/01/15 05:32:41;;;;;;;17.03;11.40;;;0.30;95.70;;;;;;5072641;28;20994;-45
2022/01/15 05:35:09;;;;;;;24.60;12.37;;;0.40;95.90;;;;;;5072790;28;20891;-45
2022/01/15 05:37:36;;;;;;;21.43;12.97;;;0.40;96.20;;;;;;5077398;28;20500;-45
2022/01/15 05:40:04;;;;;;;23.00;11.83;;;0.50;95.80;;;;;;5078824;28;20482;-45
2022/01/15 05:42:32;;;;;;;20.10;11.70;;;0.60;95.80;;;;;;5073056;28;21039;-45
2022/01/15 05:44:59;;;;;;;21.97;11.80;;;0.60;96.10;;;;;;5080213;28;20495;-45
2022/01/15 05:47:25;;;;;;;22.40;10.37;;;0.60;96.10;;;;;;5080312;28;20565;-45
2022/01/15 05:49:52;;;;;;;20.20;12.30;;;0.70;96.00;;;;;;5076552;28;20862;-45
2022/01/15 05:52:19;;;;;;;22.17;11.97;;;0.70;96.30;;;;;;5080295;28;20504;-45
2022/01/15 05:54:45;;;;;;;23.87;13.40;;;0.70;96.30;;;;;;5064885;28;21200;-45
2022/01/15 05:57:12;;;;;;;18.00;10.70;;;0.80;96.10;;;;;;5073858;28;20535;-45
2022/01/15 05:59:40;;;;;;;10.80;8.27;;;0.80;96.40;;;;;;5081393;28;20508;-45
2022/01/15 06:02:07;;;;;;;22.80;11.83;;;0.80;96.50;;;;;;5090862;28;20553;-45
2022/01/15 06:04:33;;;;;;;17.77;11.30;;;0.80;96.30;;;;;;5079022;28;21122;-45
2022/01/15 06:07:00;;;;;;;19.77;11.00;;;0.80;96.60;;;;;;5068113;28;20485;-45
2022/01/15 06:09:27;;;;;;;25.30;11.73;;;0.80;96.40;;;;;;5077813;28;20495;-45
2022/01/15 06:11:55;;;;;;;21.07;12.60;;;0.80;96.40;;;;;;5081500;28;20477;-45
2022/01/15 06:14:22;;;;;;;20.30;12.63;;;0.80;96.50;;;;;;5078668;28;20865;-45
2022/01/15 06:16:50;;;;;;;15.47;8.67;;;0.80;96.50;;;;;;5075360;28;20513;-45
2022/01/15 06:19:17;;;;;;;25.80;12.97;;;0.90;96.60;;;;;;5080202;28;20484;-45
2022/01/15 06:21:44;;;;;;;25.43;12.73;;;0.90;96.60;;;;;;5082198;28;20481;-45
2022/01/15 06:24:10;;;;;;;22.97;12.10;;;0.90;96.60;;;;;;5077383;28;20493;-45
2022/01/15 06:26:37;;;;;;;27.00;12.63;;;0.90;96.70;;;;;;5082417;28;20506;-45
2022/01/15 06:29:04;;;;;;;17.23;11.60;;;0.90;96.70;;;;;;5070248;27;20544;-44
2022/01/15 06:31:31;;;;;;;24.53;11.27;;;0.90;96.70;;;;;;5104739;27;20461;-45
2022/01/15 06:33:59;;;;;;;30.07;12.50;;;0.90;96.90;;;;;;5072345;28;21035;-45
2022/01/15 06:36:26;;;;;;;27.50;11.67;;;0.90;96.80;;;;;;5080335;28;20497;-45
2022/01/15 06:38:53;;;;;;;21.17;10.93;;;0.90;96.70;;;;;;5081398;28;20481;-44
2022/01/15 06:41:19;;;;;;;15.07;9.80;;;0.90;96.80;;;;;;5077177;28;21007;-45
2022/01/15 06:43:46;;;;;;;25.37;12.40;;;1.00;96.80;;;;;;5077910;28;20478;-45
2022/01/15 06:46:13;;;;;;;26.83;13.70;;;1.00;96.90;;;;;;5070490;27;20491;-45
2022/01/15 06:48:40;;;;;;;20.87;11.90;;;1.00;96.90;;;;;;5100214;27;20485;-45
2022/01/15 06:51:08;;;;;;;25.73;11.77;;;1.00;96.90;;;;;;5067816;28;21257;-45
2022/01/15 06:53:34;;;;;;;25.80;12.50;;;1.00;96.90;;;;;;5075955;28;20470;-44
2022/01/15 06:56:01;;;;;;;30.77;14.30;;;1.10;96.90;;;;;;5081168;28;20482;-45
2022/01/15 06:58:28;;;;;;;25.00;12.40;;;1.10;96.80;;;;;;5078084;28;21036;-45
2022/01/15 07:00:55;;;;;;;26.73;13.87;;;1.10;96.80;;;;;;5068299;28;20477;-45
2022/01/15 07:03:21;;;;;;;21.30;10.70;;;1.10;96.70;;;;;;5078594;28;20671;-45
2022/01/15 07:05:48;;;;;;;35.00;12.70;;;1.20;96.90;;;;;;5082432;28;20492;-45
2022/01/15 07:08:16;;;;;;;29.17;12.47;;;1.10;96.90;;;;;;5076994;28;20498;-45
2022/01/15 07:10:43;;;;;;;22.70;11.50;;;1.10;96.90;;;;;;5076672;28;20484;-45
2022/01/15 07:13:11;;;;;;;27.77;10.13;;;1.20;97.10;;;;;;5065501;28;20488;-45
2022/01/15 07:15:38;;;;;;;24.77;12.20;;;1.20;97.00;;;;;;5090262;28;21916;-45
2022/01/15 07:18:05;;;;;;;25.40;12.03;;;1.20;97.00;;;;;;5088346;27;20480;-45
2022/01/15 07:20:32;;;;;;;23.10;11.83;;;1.20;97.10;;;;;;5080194;28;20808;-45
2022/01/15 07:22:59;;;;;;;33.43;13.10;;;1.20;97.10;;;;;;5080056;28;20474;-45
2022/01/15 07:25:27;;;;;;;27.10;12.30;;;1.20;97.00;;;;;;5073705;28;21021;-45
2022/01/15 07:27:54;;;;;;;33.03;14.93;;;1.20;97.10;;;;;;5078128;28;20484;-45
2022/01/15 07:30:21;;;;;;;20.50;12.10;;;1.30;97.10;;;;;;5066904;28;20490;-45
2022/01/15 07:32:47;;;;;;;25.83;13.30;;;1.30;97.00;;;;;;5087109;28;20569;-45
2022/01/15 07:35:14;;;;;;;27.30;14.10;;;1.30;97.10;;;;;;5071958;28;20485;-45
2022/01/15 07:37:42;;;;;;;29.33;14.30;;;1.30;97.10;;;;;;5068257;28;20929;-45
2022/01/15 07:40:10;;;;;;;31.23;14.60;;;1.30;97.20;;;;;;5079920;28;20488;-46
2022/01/15 07:42:40;;;;;;;29.80;15.20;;;1.30;97.10;;;;;;5091326;28;20489;-45
2022/01/15 07:45:09;;;;;;;34.93;14.10;;;1.30;97.20;;;;;;5068809;28;20476;-45
2022/01/15 07:47:36;;;;;;;30.57;14.93;;;1.30;97.20;;;;;;5075258;28;20493;-45
2022/01/15 07:50:03;;;;;;;24.60;11.73;;;1.30;97.20;;;;;;5067561;28;20506;-45
2022/01/15 07:52:30;;;;;;;28.10;13.10;;;1.40;97.20;;;;;;5069212;28;20515;-45
2022/01/15 07:54:58;;;;;;;26.60;11.90;;;1.40;97.10;;;;;;5073492;28;21050;-45
2022/01/15 07:57:25;;;;;;;24.20;11.47;;;1.40;97.20;;;;;;5077080;28;20494;-45
2022/01/15 07:59:53;;;;;;;29.63;13.80;;;1.40;97.10;;;;;;5075767;28;20496;-45
2022/01/15 08:02:20;;;;;;;31.33;12.80;;;1.50;97.20;;;;;;5080020;28;20566;-45
2022/01/15 08:04:47;;;;;;;23.00;12.73;;;1.50;97.10;;;;;;5078490;28;20481;-47
2022/01/15 08:07:14;;;;;;;16.07;7.70;;;1.50;97.10;;;;;;5083787;27;20482;-45
2022/01/15 08:09:40;;;;;;;22.80;11.60;;;1.50;97.00;;;;;;5091234;27;20477;-45
2022/01/15 08:12:08;;;;;;;22.33;11.50;;;1.50;97.00;;;;;;5074689;28;20491;-44
2022/01/15 08:14:35;;;;;;;19.13;11.00;;;1.50;97.20;;;;;;5096578;27;21053;-44
2022/01/15 08:17:03;;;;;;;21.90;11.23;;;1.50;97.30;;;;;;5097752;27;21345;-45
2022/01/15 08:19:30;;;;;;;19.97;10.67;;;1.50;97.20;;;;;;5077603;28;20513;-45
2022/01/15 08:21:57;;;;;;;20.53;9.97;;;1.50;97.30;;;;;;5083045;28;20481;-45
2022/01/15 08:24:23;;;;;;;22.20;10.77;;;1.50;97.20;;;;;;5081419;28;20473;-51
2022/01/15 08:26:52;;;;;;;19.23;10.30;;;1.50;97.40;;;;;;5074724;28;20486;-45
2022/01/15 08:29:19;;;;;;;22.77;13.50;;;1.50;97.40;;;;;;5080779;28;20487;-44
2022/01/15 08:31:46;;;;;;;23.13;11.63;;;1.50;97.40;;;;;;5078072;28;20480;-45
2022/01/15 08:34:14;;;;;;;17.60;10.13;;;1.50;97.20;;;;;;5074024;28;20491;-44
2022/01/15 08:36:41;;;;;;;24.90;12.33;;;1.50;97.40;;;;;;5088289;28;20480;-45
2022/01/15 08:39:09;;;;;;;29.43;13.10;;;1.60;97.50;;;;;;5082136;28;20508;-45
2022/01/15 08:41:35;;;;;;;27.00;13.83;;;1.60;97.30;;;;;;5077608;28;20488;-45
2022/01/15 08:44:02;;;;;;;27.90;13.10;;;1.60;97.40;;;;;;5082328;28;20488;-44
2022/01/15 08:46:29;;;;;;;28.50;12.43;;;1.60;97.30;;;;;;5076175;28;20555;-46
2022/01/15 08:48:56;;;;;;;27.60;10.10;;;1.60;97.40;;;;;;5082195;28;20489;-44
2022/01/15 08:51:24;;;;;;;25.87;10.70;;;1.60;97.40;;;;;;5072953;28;20487;-45
2022/01/15 08:53:50;;;;;;;23.73;11.00;;;1.60;97.30;;;;;;5080526;28;20480;-45
2022/01/15 08:56:18;;;;;;;22.03;12.20;;;1.60;97.50;;;;;;5079389;28;20562;-44
2022/01/15 08:58:44;;;;;;;15.80;8.20;;;1.60;97.40;;;;;;5080716;28;20564;-45
2022/01/15 09:01:13;;;;;;;29.53;11.23;;;1.70;97.40;;;;;;5078618;28;20537;-46
2022/01/15 09:03:41;;;;;;;22.73;12.20;;;1.70;97.50;;;;;;5082765;28;20574;-45
2022/01/15 09:06:08;;;;;;;20.40;11.40;;;1.70;97.50;;;;;;5069639;28;20485;-44
2022/01/15 09:08:37;;;;;;;25.47;12.70;;;1.80;97.60;;;;;;5079715;28;21049;-44
2022/01/15 09:11:03;;;;;;;20.10;10.57;;;1.80;97.50;;;;;;5083454;27;20552;-45
2022/01/15 09:13:30;;;;;;;21.00;11.80;;;1.80;97.50;;;;;;5091687;27;20868;-45
2022/01/15 09:15:57;;;;;;;19.00;11.30;;;1.80;97.60;;;;;;5065732;28;20592;-45
2022/01/15 09:18:24;;;;;;;24.23;11.87;;;1.80;97.60;;;;;;5095543;28;20490;-46
2022/01/15 09:20:51;;;;;;;17.50;8.37;;;1.80;97.50;;;;;;5081559;28;20480;-44
2022/01/15 09:23:18;;;;;;;18.57;11.10;;;1.90;97.50;;;;;;5059188;28;20534;-44
2022/01/15 09:25:46;;;;;;;22.10;12.50;;;1.90;97.60;;;;;;5063830;28;20541;-44
2022/01/15 09:30:56;;;;;;;20.50;12.87;;;1.90;97.50;;;;;;5051001;28;20475;-46
2022/01/15 09:33:23;;;;;;;24.83;10.40;;;1.90;97.60;;;;;;5058194;28;20490;-44
2022/01/15 09:35:50;;;;;;;25.93;12.37;;;1.90;97.50;;;;;;5057512;28;20518;-44
2022/01/15 09:38:17;;;;;;;24.53;12.83;;;2.00;97.80;;;;;;5041143;28;20533;-44
2022/01/15 09:40:46;;;;;;;23.10;13.20;;;2.10;97.90;;;;;;5051531;28;20482;-52
2022/01/15 09:43:15;;;;;;;25.63;11.10;;;2.10;97.50;;;;;;5086481;28;20490;-44
2022/01/15 09:45:43;;;;;;;23.63;13.13;;;2.10;97.40;;;;;;5056826;28;21075;-44
2022/01/15 09:48:10;;;;;;;19.37;11.77;;;2.20;97.80;;;;;;5070351;28;20477;-43
2022/01/15 09:50:41;;;;;;;24.27;13.40;;;2.20;97.80;;;;;;5079612;27;20480;-43
2022/01/15 09:53:08;;;;;;;25.07;12.27;;;2.30;97.70;;;;;;5082409;27;20545;-43
2022/01/15 09:55:35;;;;;;;25.40;10.80;;;2.30;97.60;;;;;;5089522;27;20999;-43
2022/01/15 09:58:04;;;;;;;20.53;12.13;;;2.40;97.80;;;;;;5076141;28;20968;-44
2022/01/15 10:00:31;;;;;;;66.43;17.00;;;2.40;97.50;;;;;;5057526;28;20487;-44
2022/01/15 10:02:58;;;;;;;41.10;14.87;;;2.50;97.50;;;;;;5084100;27;20505;-44
2022/01/15 10:05:25;;;;;;;17.53;11.30;;;2.40;97.40;;;;;;5079085;28;20476;-44
2022/01/15 10:08:00;;;;;;;22.67;11.33;;;2.50;97.50;;;;;;5077685;28;20837;-44
2022/01/15 10:10:28;;;;;;;25.33;12.00;;;2.50;97.50;;;;;;5061755;28;20485;-44
2022/01/15 10:12:56;;;;;;;16.50;10.33;;;2.50;97.40;;;;;;5069996;28;20485;-44
2022/01/15 10:15:24;;;;;;;21.87;11.27;;;2.50;97.40;;;;;;5057683;28;20474;-44
2022/01/15 10:17:50;;;;;;;20.30;10.30;;;2.50;97.20;;;;;;5058727;28;20486;-44
2022/01/15 10:20:21;;;;;;;22.10;11.30;;;2.60;97.40;;;;;;5044581;28;20497;-44
2022/01/15 10:22:51;;;;;;;13.37;8.97;;;2.60;97.40;;;;;;5052678;28;20502;-43
2022/01/15 10:25:22;;;;;;;23.13;10.67;;;2.70;97.50;;;;;;5058208;28;20538;-44
2022/01/15 10:27:51;;;;;;;22.10;11.80;;;2.70;97.30;;;;;;5048769;28;20483;-44
2022/01/15 10:30:19;;;;;;;23.97;10.07;;;2.70;97.30;;;;;;5068799;28;20612;-43
2022/01/15 10:32:57;;;;;;;15.87;11.07;;;2.70;97.20;;;;;;5047388;28;20479;-43
2022/01/15 10:35:25;;;;;;;18.33;11.70;;;2.80;97.50;;;;;;5054083;28;20481;-44
2022/01/15 10:37:55;;;;;;;21.47;11.90;;;2.80;97.40;;;;;;5054460;28;20959;-44
2022/01/15 10:40:25;;;;;;;23.57;13.57;;;2.90;97.50;;;;;;5073981;28;20482;-43
2022/01/15 10:42:57;;;;;;;25.30;12.60;;;3.00;97.50;;;;;;5061595;28;20480;-43
2022/01/15 10:45:25;;;;;;;20.00;11.90;;;3.10;97.50;;;;;;5049642;28;20549;-44
2022/01/15 10:47:55;;;;;;;13.80;9.57;;;3.20;97.40;;;;;;5055518;28;20864;-44
2022/01/15 10:50:24;;;;;;;23.33;14.40;;;3.30;97.40;;;;;;5044344;28;20468;-44
2022/01/15 10:52:51;;;;;;;25.27;14.17;;;3.40;97.50;;;;;;5053105;28;20478;-43
2022/01/15 10:55:19;;;;;;;20.80;11.40;;;3.50;97.30;;;;;;5051708;28;20490;-44
2022/01/15 10:57:53;;;;;;;23.80;13.70;;;3.60;97.30;;;;;;5063111;28;20489;-43
2022/01/15 11:00:24;;;;;;;23.43;12.90;;;3.80;97.70;;;;;;5057810;28;20554;-45
2022/01/15 11:02:53;;;;;;;21.70;13.40;;;4.10;97.20;;;;;;5071181;27;20484;-44
2022/01/15 11:05:27;;;;;;;21.27;13.70;;;4.10;97.40;;;;;;5066605;27;20486;-44
2022/01/15 11:08:03;;;;;;;27.53;15.27;;;4.40;97.40;;;;;;5057699;28;20497;-43
2022/01/15 11:10:29;;;;;;;24.97;15.57;;;4.60;98.20;;;;;;5048681;28;20994;-44
2022/01/15 11:12:56;;;;;;;27.77;13.70;;;5.00;97.70;;;;;;5059731;28;20479;-44
2022/01/15 11:15:23;;;;;;;38.83;16.20;;;5.60;97.10;;;;;;5052732;28;20497;-44
2022/01/15 11:17:50;;;;;;;25.40;14.50;;;5.50;97.30;;;;;;5056012;28;20864;-44
2022/01/15 11:20:22;;;;;;;25.37;15.43;;;5.80;96.60;;;;;;5050426;28;20485;-44
2022/01/15 11:22:50;;;;;;;22.03;13.80;;;6.20;96.20;;;;;;5057836;28;21051;-44
2022/01/15 11:25:18;;;;;;;24.60;12.37;;;6.20;96.50;;;;;;5060243;28;20488;-44
2022/01/15 11:27:45;;;;;;;29.37;16.40;;;6.40;95.90;;;;;;5057302;28;20968;-44
2022/01/15 11:30:12;;;;;;;29.53;14.20;;;6.50;95.30;;;;;;5052676;28;20474;-43
2022/01/15 11:32:43;;;;;;;22.37;14.97;;;6.50;95.50;;;;;;5044343;28;20469;-44
2022/01/15 11:35:11;;;;;;;21.47;13.60;;;6.50;95.40;;;;;;5046937;28;20571;-44
2022/01/15 11:37:45;;;;;;;20.30;13.10;;;6.50;94.60;;;;;;5046968;28;21343;-44
2022/01/15 11:40:35;;;;;;;18.87;12.60;;;6.50;95.00;;;;;;5055696;28;20898;-44
2022/01/15 11:43:35;;;;;;;21.73;14.00;;;6.60;95.40;;;;;;5052348;28;20479;-44
2022/01/15 11:46:04;;;;;;;20.73;12.23;;;6.80;95.40;;;;;;5058441;28;20476;-45
2022/01/15 11:48:33;;;;;;;20.20;13.60;;;6.90;95.10;;;;;;5054863;28;20485;-44
2022/01/15 11:51:25;;;;;;;22.80;13.30;;;7.10;94.70;;;;;;5055236;28;20557;-45
2022/01/15 11:53:54;;;;;;;24.10;13.30;;;7.20;94.80;;;;;;5053024;28;20474;-44
2022/01/15 11:56:24;;;;;;;18.80;13.77;;;7.30;94.80;;;;;;5048739;28;20482;-45
2022/01/15 11:58:51;;;;;;;23.53;14.50;;;7.50;94.60;;;;;;5055682;28;21237;-44
2022/01/15 12:01:37;;;;;;;23.10;13.97;;;7.60;94.60;;;;;;5055092;28;20485;-45
2022/01/15 12:04:23;;;;;;;19.40;13.27;;;7.90;94.50;;;;;;5062782;28;20548;-45
2022/01/15 12:07:19;;;;;;;27.20;12.47;;;8.00;93.90;;;;;;5053095;28;20479;-45
2022/01/15 12:09:47;;;;;;;20.63;13.17;;;8.00;94.00;;;;;;4999108;28;20481;-45
2022/01/15 12:12:45;;;;;;;24.03;12.20;;;7.90;93.60;;;;;;5067499;28;20483;-45
2022/01/15 12:15:17;;;;;;;19.20;12.40;;;8.00;93.90;;;;;;5048366;28;20486;-45
2022/01/15 12:17:46;;;;;;;19.13;12.30;;;8.00;93.80;;;;;;5040150;28;20476;-46
2022/01/15 12:20:31;;;;;;;23.43;13.40;;;8.00;93.30;;;;;;5063040;28;21316;-48
2022/01/15 12:23:00;;;;;;;18.07;12.60;;;8.10;94.10;;;;;;5063875;28;20633;-45
2022/01/15 12:25:32;;;;;;;67.97;20.33;;;8.20;93.40;;;;;;5058495;28;20477;-45
2022/01/15 12:28:03;;;;;;;23.33;12.33;;;8.30;94.00;;;;;;5054655;28;20888;-45
2022/01/15 12:30:31;;;;;;;16.90;11.90;;;8.30;93.60;;;;;;5057193;28;20491;-45
2022/01/15 12:33:00;;;;;;;17.93;13.63;;;;;;;;;;5047489;28;20987;-45
2022/01/15 12:35:30;;;;;;;17.43;13.23;;;8.50;93.70;;;;;;5057478;28;20486;-45
2022/01/15 12:38:00;;;;;;;20.80;13.57;;;8.60;93.50;;;;;;5048609;28;20615;-45
2022/01/15 12:40:33;;;;;;;21.47;13.60;;;8.90;93.50;;;;;;5093291;28;20492;-45
2022/01/15 12:43:03;;;;;;;17.83;12.23;;;9.00;93.30;;;;;;5061258;28;20481;-45
2022/01/15 12:45:31;;;;;;;22.37;13.93;;;9.10;93.00;;;;;;5054993;28;20481;-45
2022/01/15 12:47:58;;;;;;;26.20;14.53;;;9.10;92.60;;;;;;5057579;27;21025;-44
2022/01/15 12:50:26;;;;;;;25.33;14.20;;;9.00;93.00;;;;;;5065134;28;20507;-45
2022/01/15 12:53:00;;;;;;;23.37;13.70;;;9.10;92.90;;;;;;5058830;28;20478;-44
2022/01/15 12:55:30;;;;;;;21.07;14.53;;;9.10;93.10;;;;;;5060391;28;21033;-44
2022/01/15 12:57:56;;;;;;;18.07;13.93;;;9.10;92.80;;;;;;5061092;28;20570;-45
2022/01/15 13:00:26;;;;;;;27.77;14.30;;;9.20;92.40;;;;;;5058960;28;20489;-45
2022/01/15 13:02:55;;;;;;;20.33;14.10;;;9.20;92.30;;;;;;5060557;27;20483;-44